sensor_id;sensor_type;location;lat;lon;timestamp;P1;durP1;ratioP1;P2;durP2;ratioP2
59685;SDS011;45554;51.096;16.976;2022-08-01T00:00:09;5.80;;;2.30;;
59685;SDS011;45554;51.096;16.976;2022-08-01T00:02:58;4.90;;;2.20;;
59685;SDS011;45554;51.096;16.976;2022-08-01T00:05:27;4.90;;;2.30;;
59685;SDS011;45554;51.096;16.976;2022-08-01T00:07:58;4.30;;;2.10;;
59685;SDS011;45554;51.096;16.976;2022-08-01T00:10:27;5.00;;;2.20;;
59685;SDS011;45554;51.096;16.976;2022-08-01T00:12:56;5.50;;;2.30;;
59685;SDS011;45554;51.096;16.976;2022-08-01T00:15:26;5.00;;;2.40;;
59685;SDS011;45554;51.096;16.976;2022-08-01T00:17:54;3.10;;;1.80;;
59685;SDS011;45554;51.096;16.976;2022-08-01T00:20:23;4.20;;;2.30;;
59685;SDS011;45554;51.096;16.976;2022-08-01T00:22:51;3.30;;;2.10;;
59685;SDS011;45554;51.096;16.976;2022-08-01T00:25:19;5.00;;;2.40;;
59685;SDS011;45554;51.096;16.976;2022-08-01T00:28:01;5.20;;;2.50;;
59685;SDS011;45554;51.096;16.976;2022-08-01T00:30:30;3.50;;;2.50;;
59685;SDS011;45554;51.096;16.976;2022-08-01T00:32:58;4.30;;;2.20;;
59685;SDS011;45554;51.096;16.976;2022-08-01T00:35:27;5.20;;;2.50;;
59685;SDS011;45554;51.096;16.976;2022-08-01T00:37:55;4.40;;;2.30;;
59685;SDS011;45554;51.096;16.976;2022-08-01T00:40:23;4.50;;;2.50;;
59685;SDS011;45554;51.096;16.976;2022-08-01T00:42:54;4.30;;;2.30;;
59685;SDS011;45554;51.096;16.976;2022-08-01T00:45:23;5.00;;;2.20;;
59685;SDS011;45554;51.096;16.976;2022-08-01T00:50:21;5.60;;;2.30;;
59685;SDS011;45554;51.096;16.976;2022-08-01T00:52:51;5.60;;;2.40;;
59685;SDS011;45554;51.096;16.976;2022-08-01T00:57:48;5.50;;;2.30;;
59685;SDS011;45554;51.096;16.976;2022-08-01T01:00:33;4.90;;;2.50;;
59685;SDS011;45554;51.096;16.976;2022-08-01T01:03:21;3.40;;;2.10;;
59685;SDS011;45554;51.096;16.976;2022-08-01T01:06:19;2.90;;;1.90;;
59685;SDS011;45554;51.096;16.976;2022-08-01T01:09:02;4.00;;;2.20;;
59685;SDS011;45554;51.096;16.976;2022-08-01T01:11:39;3.80;;;2.30;;
59685;SDS011;45554;51.096;16.976;2022-08-01T01:14:19;4.20;;;2.40;;
59685;SDS011;45554;51.096;16.976;2022-08-01T01:16:55;4.20;;;2.40;;
59685;SDS011;45554;51.096;16.976;2022-08-01T01:19:29;4.40;;;2.30;;
59685;SDS011;45554;51.096;16.976;2022-08-01T01:22:21;3.50;;;2.30;;
59685;SDS011;45554;51.096;16.976;2022-08-01T01:24:56;3.20;;;2.00;;
59685;SDS011;45554;51.096;16.976;2022-08-01T01:30:24;4.40;;;2.10;;
59685;SDS011;45554;51.096;16.976;2022-08-01T01:32:57;4.50;;;2.50;;
59685;SDS011;45554;51.096;16.976;2022-08-01T01:35:31;3.30;;;2.30;;
59685;SDS011;45554;51.096;16.976;2022-08-01T01:38:10;4.60;;;2.30;;
59685;SDS011;45554;51.096;16.976;2022-08-01T01:40:45;4.20;;;2.30;;
59685;SDS011;45554;51.096;16.976;2022-08-01T01:43:15;5.20;;;2.60;;
59685;SDS011;45554;51.096;16.976;2022-08-01T01:45:45;3.90;;;2.30;;
59685;SDS011;45554;51.096;16.976;2022-08-01T01:48:16;3.70;;;2.30;;
59685;SDS011;45554;51.096;16.976;2022-08-01T01:50:46;3.90;;;2.30;;
59685;SDS011;45554;51.096;16.976;2022-08-01T01:53:17;4.30;;;2.30;;
59685;SDS011;45554;51.096;16.976;2022-08-01T01:55:48;5.90;;;2.50;;
59685;SDS011;45554;51.096;16.976;2022-08-01T01:58:22;4.60;;;2.60;;
59685;SDS011;45554;51.096;16.976;2022-08-01T02:00:52;3.90;;;2.20;;
59685;SDS011;45554;51.096;16.976;2022-08-01T02:03:23;4.40;;;2.20;;
59685;SDS011;45554;51.096;16.976;2022-08-01T02:05:56;3.70;;;2.20;;
59685;SDS011;45554;51.096;16.976;2022-08-01T02:08:26;4.80;;;2.10;;
59685;SDS011;45554;51.096;16.976;2022-08-01T02:10:59;4.00;;;2.20;;
59685;SDS011;45554;51.096;16.976;2022-08-01T02:13:49;3.80;;;2.30;;
59685;SDS011;45554;51.096;16.976;2022-08-01T02:16:22;4.20;;;2.50;;
59685;SDS011;45554;51.096;16.976;2022-08-01T02:18:52;5.20;;;2.30;;
59685;SDS011;45554;51.096;16.976;2022-08-01T02:21:28;5.70;;;2.40;;
59685;SDS011;45554;51.096;16.976;2022-08-01T02:24:12;6.10;;;2.60;;
59685;SDS011;45554;51.096;16.976;2022-08-01T02:26:43;4.00;;;2.30;;
59685;SDS011;45554;51.096;16.976;2022-08-01T02:29:19;4.00;;;2.40;;
59685;SDS011;45554;51.096;16.976;2022-08-01T02:31:52;3.10;;;2.50;;
59685;SDS011;45554;51.096;16.976;2022-08-01T02:34:22;5.00;;;2.70;;
59685;SDS011;45554;51.096;16.976;2022-08-01T02:36:54;5.00;;;2.60;;
59685;SDS011;45554;51.096;16.976;2022-08-01T02:39:24;5.60;;;2.90;;
59685;SDS011;45554;51.096;16.976;2022-08-01T02:41:57;5.80;;;2.80;;
59685;SDS011;45554;51.096;16.976;2022-08-01T02:44:33;5.40;;;2.60;;
59685;SDS011;45554;51.096;16.976;2022-08-01T02:47:05;5.50;;;2.60;;
59685;SDS011;45554;51.096;16.976;2022-08-01T02:49:42;4.50;;;2.80;;
59685;SDS011;45554;51.096;16.976;2022-08-01T02:52:14;5.30;;;2.90;;
59685;SDS011;45554;51.096;16.976;2022-08-01T02:54:45;4.20;;;2.60;;
59685;SDS011;45554;51.096;16.976;2022-08-01T02:57:20;5.40;;;3.20;;
59685;SDS011;45554;51.096;16.976;2022-08-01T02:59:52;6.10;;;3.20;;
59685;SDS011;45554;51.096;16.976;2022-08-01T03:02:23;5.90;;;3.20;;
59685;SDS011;45554;51.096;16.976;2022-08-01T03:04:52;6.00;;;3.30;;
59685;SDS011;45554;51.096;16.976;2022-08-01T03:07:23;4.20;;;3.10;;
59685;SDS011;45554;51.096;16.976;2022-08-01T03:10:01;5.90;;;3.30;;
59685;SDS011;45554;51.096;16.976;2022-08-01T03:12:31;5.30;;;3.20;;
59685;SDS011;45554;51.096;16.976;2022-08-01T03:15:02;6.30;;;3.50;;
59685;SDS011;45554;51.096;16.976;2022-08-01T03:17:35;7.80;;;3.30;;
59685;SDS011;45554;51.096;16.976;2022-08-01T03:20:06;8.60;;;3.40;;
59685;SDS011;45554;51.096;16.976;2022-08-01T03:22:40;4.60;;;2.90;;
59685;SDS011;45554;51.096;16.976;2022-08-01T03:25:13;5.90;;;3.20;;
59685;SDS011;45554;51.096;16.976;2022-08-01T03:27:43;7.20;;;3.00;;
59685;SDS011;45554;51.096;16.976;2022-08-01T03:30:15;5.00;;;3.20;;
59685;SDS011;45554;51.096;16.976;2022-08-01T03:32:46;7.30;;;3.50;;
59685;SDS011;45554;51.096;16.976;2022-08-01T03:35:15;6.50;;;3.20;;
59685;SDS011;45554;51.096;16.976;2022-08-01T03:37:44;6.50;;;3.40;;
59685;SDS011;45554;51.096;16.976;2022-08-01T03:43:16;5.40;;;3.30;;
59685;SDS011;45554;51.096;16.976;2022-08-01T03:45:50;7.20;;;3.90;;
59685;SDS011;45554;51.096;16.976;2022-08-01T03:48:22;8.00;;;3.60;;
59685;SDS011;45554;51.096;16.976;2022-08-01T03:50:57;8.80;;;3.60;;
59685;SDS011;45554;51.096;16.976;2022-08-01T03:53:29;6.00;;;3.30;;
59685;SDS011;45554;51.096;16.976;2022-08-01T03:56:00;5.30;;;3.20;;
59685;SDS011;45554;51.096;16.976;2022-08-01T03:58:29;6.50;;;3.60;;
59685;SDS011;45554;51.096;16.976;2022-08-01T04:03:26;6.60;;;4.00;;
59685;SDS011;45554;51.096;16.976;2022-08-01T04:05:55;10.60;;;4.70;;
59685;SDS011;45554;51.096;16.976;2022-08-01T04:08:33;8.10;;;4.20;;
59685;SDS011;45554;51.096;16.976;2022-08-01T04:11:08;5.70;;;3.90;;
59685;SDS011;45554;51.096;16.976;2022-08-01T04:13:38;6.00;;;4.00;;
59685;SDS011;45554;51.096;16.976;2022-08-01T04:16:06;6.50;;;4.20;;
59685;SDS011;45554;51.096;16.976;2022-08-01T04:18:35;7.60;;;4.20;;
59685;SDS011;45554;51.096;16.976;2022-08-01T04:21:03;7.60;;;3.80;;
59685;SDS011;45554;51.096;16.976;2022-08-01T04:23:31;7.70;;;4.00;;
59685;SDS011;45554;51.096;16.976;2022-08-01T04:26:02;7.90;;;4.30;;
59685;SDS011;45554;51.096;16.976;2022-08-01T04:28:33;6.40;;;4.20;;
59685;SDS011;45554;51.096;16.976;2022-08-01T04:31:06;7.00;;;4.20;;
59685;SDS011;45554;51.096;16.976;2022-08-01T04:33:38;7.70;;;3.90;;
59685;SDS011;45554;51.096;16.976;2022-08-01T04:36:10;6.80;;;4.70;;
59685;SDS011;45554;51.096;16.976;2022-08-01T04:38:44;7.00;;;4.60;;
59685;SDS011;45554;51.096;16.976;2022-08-01T04:41:16;6.90;;;4.30;;
59685;SDS011;45554;51.096;16.976;2022-08-01T04:43:46;7.40;;;5.10;;
59685;SDS011;45554;51.096;16.976;2022-08-01T04:46:14;6.80;;;4.90;;
59685;SDS011;45554;51.096;16.976;2022-08-01T04:48:43;6.60;;;4.10;;
59685;SDS011;45554;51.096;16.976;2022-08-01T04:53:43;6.60;;;4.20;;
59685;SDS011;45554;51.096;16.976;2022-08-01T04:56:13;6.90;;;4.30;;
59685;SDS011;45554;51.096;16.976;2022-08-01T04:58:42;8.10;;;4.50;;
59685;SDS011;45554;51.096;16.976;2022-08-01T05:01:10;9.00;;;4.70;;
59685;SDS011;45554;51.096;16.976;2022-08-01T05:03:39;7.50;;;4.40;;
59685;SDS011;45554;51.096;16.976;2022-08-01T05:06:07;10.00;;;4.40;;
59685;SDS011;45554;51.096;16.976;2022-08-01T05:08:35;6.20;;;3.80;;
59685;SDS011;45554;51.096;16.976;2022-08-01T05:11:03;7.40;;;4.70;;
59685;SDS011;45554;51.096;16.976;2022-08-01T05:13:31;6.80;;;4.40;;
59685;SDS011;45554;51.096;16.976;2022-08-01T05:16:00;11.00;;;5.10;;
59685;SDS011;45554;51.096;16.976;2022-08-01T05:18:31;8.80;;;5.00;;
59685;SDS011;45554;51.096;16.976;2022-08-01T05:20:59;8.30;;;4.90;;
59685;SDS011;45554;51.096;16.976;2022-08-01T05:23:28;9.10;;;5.00;;
59685;SDS011;45554;51.096;16.976;2022-08-01T05:26:10;7.60;;;4.50;;
59685;SDS011;45554;51.096;16.976;2022-08-01T05:28:41;6.40;;;4.20;;
59685;SDS011;45554;51.096;16.976;2022-08-01T05:31:09;7.40;;;4.20;;
59685;SDS011;45554;51.096;16.976;2022-08-01T05:33:37;8.40;;;4.70;;
59685;SDS011;45554;51.096;16.976;2022-08-01T05:38:36;8.60;;;4.30;;
59685;SDS011;45554;51.096;16.976;2022-08-01T05:41:04;7.60;;;3.90;;
59685;SDS011;45554;51.096;16.976;2022-08-01T05:43:32;11.00;;;4.50;;
59685;SDS011;45554;51.096;16.976;2022-08-01T05:46:00;8.50;;;4.40;;
59685;SDS011;45554;51.096;16.976;2022-08-01T05:48:29;8.60;;;4.00;;
59685;SDS011;45554;51.096;16.976;2022-08-01T05:50:58;7.30;;;4.60;;
59685;SDS011;45554;51.096;16.976;2022-08-01T05:53:27;7.80;;;4.40;;
59685;SDS011;45554;51.096;16.976;2022-08-01T05:58:25;8.20;;;5.00;;
59685;SDS011;45554;51.096;16.976;2022-08-01T06:00:53;8.10;;;4.70;;
59685;SDS011;45554;51.096;16.976;2022-08-01T06:03:21;8.70;;;4.90;;
59685;SDS011;45554;51.096;16.976;2022-08-01T06:05:57;9.90;;;4.80;;
59685;SDS011;45554;51.096;16.976;2022-08-01T06:08:25;6.80;;;4.10;;
59685;SDS011;45554;51.096;16.976;2022-08-01T06:13:21;9.20;;;4.70;;
59685;SDS011;45554;51.096;16.976;2022-08-01T06:15:54;7.70;;;4.60;;
59685;SDS011;45554;51.096;16.976;2022-08-01T06:18:23;7.00;;;4.00;;
59685;SDS011;45554;51.096;16.976;2022-08-01T06:20:51;9.40;;;4.30;;
59685;SDS011;45554;51.096;16.976;2022-08-01T06:23:20;12.00;;;4.90;;
59685;SDS011;45554;51.096;16.976;2022-08-01T06:25:59;8.10;;;3.90;;
59685;SDS011;45554;51.096;16.976;2022-08-01T06:28:27;12.50;;;4.70;;
59685;SDS011;45554;51.096;16.976;2022-08-01T06:30:59;16.90;;;4.40;;
59685;SDS011;45554;51.096;16.976;2022-08-01T06:33:27;10.20;;;4.10;;
59685;SDS011;45554;51.096;16.976;2022-08-01T06:35:55;8.20;;;4.00;;
59685;SDS011;45554;51.096;16.976;2022-08-01T06:40:52;10.40;;;4.20;;
59685;SDS011;45554;51.096;16.976;2022-08-01T06:43:20;6.20;;;3.90;;
59685;SDS011;45554;51.096;16.976;2022-08-01T06:45:49;7.30;;;3.70;;
59685;SDS011;45554;51.096;16.976;2022-08-01T06:48:19;7.80;;;3.90;;
59685;SDS011;45554;51.096;16.976;2022-08-01T06:50:47;6.10;;;3.40;;
59685;SDS011;45554;51.096;16.976;2022-08-01T06:53:15;9.40;;;3.40;;
59685;SDS011;45554;51.096;16.976;2022-08-01T06:55:44;6.70;;;3.40;;
59685;SDS011;45554;51.096;16.976;2022-08-01T06:58:12;9.00;;;3.30;;
59685;SDS011;45554;51.096;16.976;2022-08-01T07:00:40;6.90;;;3.30;;
59685;SDS011;45554;51.096;16.976;2022-08-01T07:03:09;7.00;;;3.30;;
59685;SDS011;45554;51.096;16.976;2022-08-01T07:05:37;6.30;;;3.20;;
59685;SDS011;45554;51.096;16.976;2022-08-01T07:08:05;6.00;;;2.90;;
59685;SDS011;45554;51.096;16.976;2022-08-01T07:10:34;7.50;;;3.10;;
59685;SDS011;45554;51.096;16.976;2022-08-01T07:13:04;4.70;;;2.70;;
59685;SDS011;45554;51.096;16.976;2022-08-01T07:15:32;8.10;;;2.70;;
59685;SDS011;45554;51.096;16.976;2022-08-01T07:18:01;6.50;;;3.10;;
59685;SDS011;45554;51.096;16.976;2022-08-01T07:20:31;5.90;;;2.90;;
59685;SDS011;45554;51.096;16.976;2022-08-01T07:23:08;5.50;;;2.70;;
59685;SDS011;45554;51.096;16.976;2022-08-01T07:25:39;5.00;;;2.90;;
59685;SDS011;45554;51.096;16.976;2022-08-01T07:28:18;6.40;;;3.20;;
59685;SDS011;45554;51.096;16.976;2022-08-01T07:30:46;5.70;;;2.90;;
59685;SDS011;45554;51.096;16.976;2022-08-01T07:33:15;6.00;;;2.80;;
59685;SDS011;45554;51.096;16.976;2022-08-01T07:35:44;5.30;;;2.90;;
59685;SDS011;45554;51.096;16.976;2022-08-01T07:38:12;8.90;;;3.00;;
59685;SDS011;45554;51.096;16.976;2022-08-01T07:40:42;5.60;;;3.00;;
59685;SDS011;45554;51.096;16.976;2022-08-01T07:43:12;6.10;;;3.10;;
59685;SDS011;45554;51.096;16.976;2022-08-01T07:45:42;5.80;;;3.00;;
59685;SDS011;45554;51.096;16.976;2022-08-01T07:48:13;7.90;;;3.20;;
59685;SDS011;45554;51.096;16.976;2022-08-01T07:50:41;5.00;;;3.10;;
59685;SDS011;45554;51.096;16.976;2022-08-01T07:53:09;7.50;;;3.20;;
59685;SDS011;45554;51.096;16.976;2022-08-01T07:55:38;6.90;;;3.00;;
59685;SDS011;45554;51.096;16.976;2022-08-01T07:58:06;6.50;;;3.00;;
59685;SDS011;45554;51.096;16.976;2022-08-01T08:00:36;6.40;;;3.00;;
59685;SDS011;45554;51.096;16.976;2022-08-01T08:03:04;5.60;;;2.90;;
59685;SDS011;45554;51.096;16.976;2022-08-01T08:05:32;6.60;;;2.90;;
59685;SDS011;45554;51.096;16.976;2022-08-01T08:08:22;8.00;;;3.10;;
59685;SDS011;45554;51.096;16.976;2022-08-01T08:10:51;9.00;;;3.20;;
59685;SDS011;45554;51.096;16.976;2022-08-01T08:13:19;5.80;;;2.90;;
59685;SDS011;45554;51.096;16.976;2022-08-01T08:15:47;3.80;;;2.50;;
59685;SDS011;45554;51.096;16.976;2022-08-01T08:18:15;7.10;;;3.00;;
59685;SDS011;45554;51.096;16.976;2022-08-01T08:20:43;6.90;;;3.10;;
59685;SDS011;45554;51.096;16.976;2022-08-01T08:23:11;6.70;;;2.90;;
59685;SDS011;45554;51.096;16.976;2022-08-01T08:26:13;6.60;;;3.00;;
59685;SDS011;45554;51.096;16.976;2022-08-01T08:28:41;5.90;;;3.20;;
59685;SDS011;45554;51.096;16.976;2022-08-01T08:31:09;7.40;;;3.60;;
59685;SDS011;45554;51.096;16.976;2022-08-01T08:33:57;6.60;;;3.60;;
59685;SDS011;45554;51.096;16.976;2022-08-01T08:36:25;6.40;;;3.60;;
59685;SDS011;45554;51.096;16.976;2022-08-01T08:39:00;5.30;;;3.40;;
59685;SDS011;45554;51.096;16.976;2022-08-01T08:41:29;5.60;;;3.20;;
59685;SDS011;45554;51.096;16.976;2022-08-01T08:44:05;5.50;;;3.30;;
59685;SDS011;45554;51.096;16.976;2022-08-01T08:46:39;8.10;;;3.70;;
59685;SDS011;45554;51.096;16.976;2022-08-01T08:49:09;6.40;;;3.60;;
59685;SDS011;45554;51.096;16.976;2022-08-01T08:51:39;5.80;;;3.10;;
59685;SDS011;45554;51.096;16.976;2022-08-01T08:54:10;6.60;;;3.00;;
59685;SDS011;45554;51.096;16.976;2022-08-01T08:56:43;8.80;;;2.90;;
59685;SDS011;45554;51.096;16.976;2022-08-01T08:59:12;5.90;;;3.40;;
59685;SDS011;45554;51.096;16.976;2022-08-01T09:01:42;5.80;;;3.30;;
59685;SDS011;45554;51.096;16.976;2022-08-01T09:04:11;6.30;;;3.30;;
59685;SDS011;45554;51.096;16.976;2022-08-01T09:06:40;6.50;;;3.10;;
59685;SDS011;45554;51.096;16.976;2022-08-01T09:09:08;6.20;;;3.10;;
59685;SDS011;45554;51.096;16.976;2022-08-01T09:11:37;5.30;;;3.10;;
59685;SDS011;45554;51.096;16.976;2022-08-01T09:14:07;4.90;;;3.00;;
59685;SDS011;45554;51.096;16.976;2022-08-01T09:16:36;5.40;;;3.40;;
59685;SDS011;45554;51.096;16.976;2022-08-01T09:19:16;6.20;;;3.40;;
59685;SDS011;45554;51.096;16.976;2022-08-01T09:22:06;4.60;;;3.20;;
59685;SDS011;45554;51.096;16.976;2022-08-01T09:24:39;7.30;;;3.40;;
59685;SDS011;45554;51.096;16.976;2022-08-01T09:27:15;5.10;;;3.40;;
59685;SDS011;45554;51.096;16.976;2022-08-01T09:29:49;5.60;;;3.10;;
59685;SDS011;45554;51.096;16.976;2022-08-01T09:32:29;6.30;;;3.20;;
59685;SDS011;45554;51.096;16.976;2022-08-01T09:35:22;4.90;;;3.10;;
59685;SDS011;45554;51.096;16.976;2022-08-01T09:38:17;8.10;;;3.40;;
59685;SDS011;45554;51.096;16.976;2022-08-01T09:40:56;6.00;;;2.90;;
59685;SDS011;45554;51.096;16.976;2022-08-01T09:43:26;5.60;;;3.20;;
59685;SDS011;45554;51.096;16.976;2022-08-01T09:45:58;4.70;;;3.00;;
59685;SDS011;45554;51.096;16.976;2022-08-01T09:48:27;6.30;;;3.10;;
59685;SDS011;45554;51.096;16.976;2022-08-01T09:50:57;8.10;;;3.00;;
59685;SDS011;45554;51.096;16.976;2022-08-01T09:53:40;7.70;;;3.40;;
59685;SDS011;45554;51.096;16.976;2022-08-01T09:56:19;5.50;;;3.00;;
59685;SDS011;45554;51.096;16.976;2022-08-01T09:58:56;5.80;;;2.90;;
59685;SDS011;45554;51.096;16.976;2022-08-01T10:01:40;4.10;;;2.60;;
59685;SDS011;45554;51.096;16.976;2022-08-01T10:04:16;7.00;;;3.00;;
59685;SDS011;45554;51.096;16.976;2022-08-01T10:06:47;5.70;;;2.80;;
59685;SDS011;45554;51.096;16.976;2022-08-01T10:09:35;6.50;;;3.30;;
59685;SDS011;45554;51.096;16.976;2022-08-01T10:12:07;5.00;;;2.90;;
59685;SDS011;45554;51.096;16.976;2022-08-01T10:14:43;5.30;;;3.00;;
59685;SDS011;45554;51.096;16.976;2022-08-01T10:17:18;5.20;;;2.50;;
59685;SDS011;45554;51.096;16.976;2022-08-01T10:19:49;4.30;;;2.50;;
59685;SDS011;45554;51.096;16.976;2022-08-01T10:22:24;6.60;;;2.70;;
59685;SDS011;45554;51.096;16.976;2022-08-01T10:24:57;5.10;;;2.80;;
59685;SDS011;45554;51.096;16.976;2022-08-01T10:27:32;4.60;;;2.90;;
59685;SDS011;45554;51.096;16.976;2022-08-01T10:30:06;5.00;;;2.80;;
59685;SDS011;45554;51.096;16.976;2022-08-01T10:32:48;4.20;;;3.20;;
59685;SDS011;45554;51.096;16.976;2022-08-01T10:35:21;5.90;;;3.00;;
59685;SDS011;45554;51.096;16.976;2022-08-01T10:40:43;5.30;;;2.90;;
59685;SDS011;45554;51.096;16.976;2022-08-01T10:43:13;5.70;;;3.40;;
59685;SDS011;45554;51.096;16.976;2022-08-01T10:45:48;5.80;;;2.80;;
59685;SDS011;45554;51.096;16.976;2022-08-01T10:48:21;5.20;;;2.90;;
59685;SDS011;45554;51.096;16.976;2022-08-01T10:50:58;4.10;;;2.90;;
59685;SDS011;45554;51.096;16.976;2022-08-01T10:53:27;5.60;;;2.90;;
59685;SDS011;45554;51.096;16.976;2022-08-01T10:56:11;6.20;;;3.30;;
59685;SDS011;45554;51.096;16.976;2022-08-01T10:58:42;4.80;;;2.90;;
59685;SDS011;45554;51.096;16.976;2022-08-01T11:04:12;5.20;;;2.90;;
59685;SDS011;45554;51.096;16.976;2022-08-01T11:06:55;5.80;;;2.90;;
59685;SDS011;45554;51.096;16.976;2022-08-01T11:09:40;6.00;;;2.80;;
59685;SDS011;45554;51.096;16.976;2022-08-01T11:12:18;6.70;;;3.10;;
59685;SDS011;45554;51.096;16.976;2022-08-01T11:17:39;5.20;;;3.10;;
59685;SDS011;45554;51.096;16.976;2022-08-01T11:20:12;6.80;;;3.10;;
59685;SDS011;45554;51.096;16.976;2022-08-01T11:28:33;4.90;;;3.20;;
59685;SDS011;45554;51.096;16.976;2022-08-01T11:38:43;4.20;;;2.80;;
59685;SDS011;45554;51.096;16.976;2022-08-01T11:41:16;5.70;;;2.80;;
59685;SDS011;45554;51.096;16.976;2022-08-01T11:44:05;6.20;;;3.00;;
59685;SDS011;45554;51.096;16.976;2022-08-01T11:49:22;5.00;;;2.80;;
59685;SDS011;45554;51.096;16.976;2022-08-01T11:51:58;4.50;;;2.70;;
59685;SDS011;45554;51.096;16.976;2022-08-01T11:54:39;5.40;;;2.60;;
59685;SDS011;45554;51.096;16.976;2022-08-01T11:57:28;5.40;;;2.70;;
59685;SDS011;45554;51.096;16.976;2022-08-01T12:00:12;6.40;;;3.50;;
59685;SDS011;45554;51.096;16.976;2022-08-01T12:02:44;5.70;;;2.80;;
59685;SDS011;45554;51.096;16.976;2022-08-01T12:05:16;9.00;;;3.90;;
59685;SDS011;45554;51.096;16.976;2022-08-01T12:07:51;11.80;;;4.90;;
59685;SDS011;45554;51.096;16.976;2022-08-01T12:10:21;3.50;;;2.40;;
59685;SDS011;45554;51.096;16.976;2022-08-01T12:12:58;4.60;;;2.60;;
59685;SDS011;45554;51.096;16.976;2022-08-01T12:15:32;4.70;;;2.60;;
59685;SDS011;45554;51.096;16.976;2022-08-01T12:18:02;3.70;;;2.50;;
59685;SDS011;45554;51.096;16.976;2022-08-01T12:20:34;3.70;;;2.30;;
59685;SDS011;45554;51.096;16.976;2022-08-01T12:23:20;6.40;;;2.40;;
59685;SDS011;45554;51.096;16.976;2022-08-01T12:25:51;3.30;;;2.60;;
59685;SDS011;45554;51.096;16.976;2022-08-01T12:28:20;4.30;;;2.50;;
59685;SDS011;45554;51.096;16.976;2022-08-01T12:30:49;4.30;;;2.50;;
59685;SDS011;45554;51.096;16.976;2022-08-01T12:33:18;5.20;;;2.50;;
59685;SDS011;45554;51.096;16.976;2022-08-01T12:35:47;5.60;;;2.80;;
59685;SDS011;45554;51.096;16.976;2022-08-01T12:40:49;6.20;;;2.40;;
59685;SDS011;45554;51.096;16.976;2022-08-01T12:43:22;3.50;;;2.50;;
59685;SDS011;45554;51.096;16.976;2022-08-01T12:45:57;4.50;;;2.40;;
59685;SDS011;45554;51.096;16.976;2022-08-01T12:48:28;3.90;;;2.40;;
59685;SDS011;45554;51.096;16.976;2022-08-01T12:50:58;5.60;;;2.70;;
59685;SDS011;45554;51.096;16.976;2022-08-01T12:53:28;4.70;;;2.50;;
59685;SDS011;45554;51.096;16.976;2022-08-01T12:56:08;3.70;;;2.50;;
59685;SDS011;45554;51.096;16.976;2022-08-01T12:58:39;4.70;;;2.50;;
59685;SDS011;45554;51.096;16.976;2022-08-01T13:01:09;5.20;;;2.50;;
59685;SDS011;45554;51.096;16.976;2022-08-01T13:03:39;6.60;;;2.70;;
59685;SDS011;45554;51.096;16.976;2022-08-01T13:06:11;4.30;;;2.50;;
59685;SDS011;45554;51.096;16.976;2022-08-01T13:08:44;5.20;;;2.60;;
59685;SDS011;45554;51.096;16.976;2022-08-01T13:11:13;3.90;;;2.40;;
59685;SDS011;45554;51.096;16.976;2022-08-01T13:13:45;4.70;;;2.70;;
59685;SDS011;45554;51.096;16.976;2022-08-01T13:16:27;6.20;;;2.70;;
59685;SDS011;45554;51.096;16.976;2022-08-01T13:19:18;3.50;;;2.60;;
59685;SDS011;45554;51.096;16.976;2022-08-01T13:21:55;3.60;;;2.80;;
59685;SDS011;45554;51.096;16.976;2022-08-01T13:24:25;4.70;;;2.70;;
59685;SDS011;45554;51.096;16.976;2022-08-01T13:26:56;3.80;;;2.70;;
59685;SDS011;45554;51.096;16.976;2022-08-01T13:29:35;3.90;;;2.70;;
59685;SDS011;45554;51.096;16.976;2022-08-01T13:32:12;6.10;;;2.60;;
59685;SDS011;45554;51.096;16.976;2022-08-01T13:35:00;3.90;;;3.00;;
59685;SDS011;45554;51.096;16.976;2022-08-01T13:37:32;5.50;;;3.00;;
59685;SDS011;45554;51.096;16.976;2022-08-01T13:42:29;4.30;;;2.00;;
59685;SDS011;45554;51.096;16.976;2022-08-01T13:44:57;1.90;;;1.40;;
59685;SDS011;45554;51.096;16.976;2022-08-01T13:47:26;3.90;;;1.60;;
59685;SDS011;45554;51.096;16.976;2022-08-01T13:49:59;3.50;;;1.50;;
59685;SDS011;45554;51.096;16.976;2022-08-01T13:52:30;2.30;;;1.40;;
59685;SDS011;45554;51.096;16.976;2022-08-01T13:54:59;2.00;;;1.50;;
59685;SDS011;45554;51.096;16.976;2022-08-01T13:57:27;1.80;;;1.60;;
59685;SDS011;45554;51.096;16.976;2022-08-01T14:00:07;1.60;;;1.40;;
59685;SDS011;45554;51.096;16.976;2022-08-01T14:02:39;3.40;;;2.30;;
59685;SDS011;45554;51.096;16.976;2022-08-01T14:05:07;3.00;;;1.60;;
59685;SDS011;45554;51.096;16.976;2022-08-01T14:07:35;3.20;;;2.00;;
59685;SDS011;45554;51.096;16.976;2022-08-01T14:10:04;2.20;;;1.90;;
59685;SDS011;45554;51.096;16.976;2022-08-01T14:12:47;2.70;;;2.00;;
59685;SDS011;45554;51.096;16.976;2022-08-01T14:15:15;2.30;;;2.00;;
59685;SDS011;45554;51.096;16.976;2022-08-01T14:18:04;3.60;;;2.00;;
59685;SDS011;45554;51.096;16.976;2022-08-01T14:20:34;3.60;;;1.70;;
59685;SDS011;45554;51.096;16.976;2022-08-01T14:23:03;3.40;;;2.00;;
59685;SDS011;45554;51.096;16.976;2022-08-01T14:25:38;2.70;;;1.80;;
59685;SDS011;45554;51.096;16.976;2022-08-01T14:28:27;2.60;;;1.90;;
59685;SDS011;45554;51.096;16.976;2022-08-01T14:30:57;2.50;;;1.70;;
59685;SDS011;45554;51.096;16.976;2022-08-01T14:33:28;2.20;;;1.70;;
59685;SDS011;45554;51.096;16.976;2022-08-01T14:35:56;5.00;;;1.90;;
59685;SDS011;45554;51.096;16.976;2022-08-01T14:38:44;2.50;;;1.70;;
59685;SDS011;45554;51.096;16.976;2022-08-01T14:41:16;4.00;;;1.80;;
59685;SDS011;45554;51.096;16.976;2022-08-01T14:43:44;3.80;;;1.90;;
59685;SDS011;45554;51.096;16.976;2022-08-01T14:46:12;3.10;;;1.60;;
59685;SDS011;45554;51.096;16.976;2022-08-01T14:51:08;1.80;;;1.40;;
59685;SDS011;45554;51.096;16.976;2022-08-01T14:56:05;3.10;;;1.40;;
59685;SDS011;45554;51.096;16.976;2022-08-01T14:58:34;2.30;;;1.70;;
59685;SDS011;45554;51.096;16.976;2022-08-01T15:01:02;1.90;;;1.40;;
59685;SDS011;45554;51.096;16.976;2022-08-01T15:03:32;1.70;;;1.30;;
59685;SDS011;45554;51.096;16.976;2022-08-01T15:06:00;1.90;;;1.60;;
59685;SDS011;45554;51.096;16.976;2022-08-01T15:08:28;1.60;;;1.50;;
59685;SDS011;45554;51.096;16.976;2022-08-01T15:10:57;2.60;;;1.30;;
59685;SDS011;45554;51.096;16.976;2022-08-01T15:15:53;2.20;;;1.10;;
59685;SDS011;45554;51.096;16.976;2022-08-01T15:18:29;2.40;;;1.30;;
59685;SDS011;45554;51.096;16.976;2022-08-01T15:21:00;1.20;;;1.10;;
59685;SDS011;45554;51.096;16.976;2022-08-01T15:23:28;2.20;;;1.20;;
59685;SDS011;45554;51.096;16.976;2022-08-01T15:25:56;1.70;;;1.30;;
59685;SDS011;45554;51.096;16.976;2022-08-01T15:28:24;2.30;;;1.40;;
59685;SDS011;45554;51.096;16.976;2022-08-01T15:30:52;2.70;;;1.60;;
59685;SDS011;45554;51.096;16.976;2022-08-01T15:33:19;1.70;;;1.40;;
59685;SDS011;45554;51.096;16.976;2022-08-01T15:35:49;2.00;;;1.40;;
59685;SDS011;45554;51.096;16.976;2022-08-01T15:38:19;2.30;;;1.40;;
59685;SDS011;45554;51.096;16.976;2022-08-01T15:40:48;2.80;;;1.40;;
59685;SDS011;45554;51.096;16.976;2022-08-01T15:43:17;3.00;;;1.30;;
59685;SDS011;45554;51.096;16.976;2022-08-01T15:45:44;2.50;;;1.40;;
59685;SDS011;45554;51.096;16.976;2022-08-01T15:48:15;2.70;;;1.20;;
59685;SDS011;45554;51.096;16.976;2022-08-01T15:50:44;2.30;;;1.20;;
59685;SDS011;45554;51.096;16.976;2022-08-01T15:55:40;2.30;;;0.90;;
59685;SDS011;45554;51.096;16.976;2022-08-01T15:58:19;2.10;;;0.80;;
59685;SDS011;45554;51.096;16.976;2022-08-01T16:00:47;3.20;;;0.80;;
59685;SDS011;45554;51.096;16.976;2022-08-01T16:03:15;2.30;;;0.80;;
59685;SDS011;45554;51.096;16.976;2022-08-01T16:05:44;2.50;;;0.60;;
59685;SDS011;45554;51.096;16.976;2022-08-01T16:08:12;1.50;;;0.70;;